createdAt,value
2023-04-27T00:00:19.513Z,3.28
2023-04-27T00:03:24.317Z,3.58
2023-04-27T00:06:27.559Z,3.40
2023-04-27T00:09:30.110Z,3.53
2023-04-27T00:12:32.779Z,3.60
2023-04-27T00:15:35.608Z,3.00
2023-04-27T00:18:38.369Z,3.38
2023-04-27T00:21:40.988Z,3.55
2023-04-27T00:24:43.607Z,3.30
2023-04-27T00:27:46.385Z,3.15
2023-04-27T00:30:49.089Z,3.63
2023-04-27T00:33:51.890Z,3.17
2023-04-27T00:36:54.338Z,3.22
2023-04-27T00:39:57.079Z,3.40
2023-04-27T00:42:59.456Z,3.20
2023-04-27T00:46:02.326Z,2.92
2023-04-27T00:49:05.257Z,2.95
2023-04-27T00:52:07.886Z,2.80
2023-04-27T00:55:10.575Z,3.05
2023-04-27T00:58:13.071Z,3.10
2023-04-27T01:01:15.528Z,2.70
2023-04-27T01:04:18.368Z,3.00
2023-04-27T01:07:25.283Z,2.80
2023-04-27T01:10:28.549Z,2.72
2023-04-27T01:13:31.161Z,3.30
2023-04-27T01:16:34.101Z,3.10
2023-04-27T01:19:38.290Z,3.50
2023-04-27T01:22:41.273Z,2.95
2023-04-27T01:25:44.814Z,3.78
2023-04-27T01:28:47.255Z,3.47
2023-04-27T01:31:49.791Z,3.85
2023-04-27T01:34:52.481Z,3.70
2023-04-27T01:37:55.101Z,4.10
2023-04-27T01:41:02.091Z,3.58
2023-04-27T01:44:04.951Z,3.65
2023-04-27T01:47:07.888Z,3.65
2023-04-27T01:50:11.259Z,3.22
2023-04-27T01:53:14.948Z,3.63
2023-04-27T01:56:17.454Z,3.22
2023-04-27T01:59:20.129Z,3.53
2023-04-27T02:02:22.739Z,3.58
2023-04-27T02:05:25.530Z,3.72
2023-04-27T02:08:29.106Z,4.40
2023-04-27T02:11:31.992Z,3.58
2023-04-27T02:14:34.401Z,3.47
2023-04-27T02:17:37.084Z,3.58
2023-04-27T02:20:39.592Z,3.65
2023-04-27T02:23:42.075Z,3.63
2023-04-27T02:26:44.719Z,4.18
2023-04-27T02:29:47.552Z,4.00
2023-04-27T02:32:50.530Z,3.42
2023-04-27T02:35:53.182Z,3.90
2023-04-27T02:41:59.242Z,3.25
2023-04-27T02:45:01.820Z,3.42
2023-04-27T02:48:04.471Z,4.03
2023-04-27T02:51:09.791Z,4.30
2023-04-27T02:54:12.278Z,3.78
2023-04-27T02:57:14.683Z,3.58
2023-04-27T03:00:17.505Z,4.05
2023-04-27T03:03:20.213Z,3.70
2023-04-27T03:06:22.973Z,4.45
2023-04-27T03:09:25.622Z,3.95
2023-04-27T03:12:28.145Z,4.18
2023-04-27T03:15:30.545Z,4.47
2023-04-27T03:18:33.063Z,4.05
2023-04-27T03:21:36.166Z,4.07
2023-04-27T03:24:38.692Z,4.78
2023-04-27T03:27:42.481Z,4.30
2023-04-27T03:30:44.897Z,4.80
2023-04-27T03:33:47.373Z,4.45
2023-04-27T03:36:51.079Z,4.32
2023-04-27T03:39:53.615Z,4.05
2023-04-27T03:42:57.532Z,4.07
2023-04-27T03:46:01.683Z,4.18
2023-04-27T03:49:04.271Z,4.65
2023-04-27T03:52:07.471Z,4.80
2023-04-27T03:55:10.870Z,3.88
2023-04-27T03:58:15.351Z,4.00
2023-04-27T04:01:37.321Z,5.13
2023-04-27T04:04:40.114Z,4.53
2023-04-27T04:07:43.734Z,5.20
2023-04-27T04:10:47.687Z,4.20
2023-04-27T04:13:50.355Z,5.65
2023-04-27T04:16:52.806Z,5.35
2023-04-27T04:19:57.006Z,4.80
2023-04-27T04:22:59.719Z,4.80
2023-04-27T04:26:02.531Z,4.65
2023-04-27T04:29:11.124Z,5.15
2023-04-27T04:32:17.932Z,4.32
2023-04-27T04:35:20.558Z,5.43
2023-04-27T04:38:24.089Z,4.80
2023-04-27T04:41:27.199Z,4.82
2023-04-27T04:44:29.782Z,4.68
2023-04-27T04:47:32.726Z,4.32
2023-04-27T04:50:36.097Z,4.78
2023-04-27T04:53:38.628Z,4.47
2023-04-27T04:56:41.136Z,5.13
2023-04-27T04:59:43.649Z,5.03
2023-04-27T05:02:47.471Z,5.10
2023-04-27T05:05:50.102Z,4.43
2023-04-27T05:08:52.483Z,4.60
2023-04-27T05:11:55.004Z,5.18
2023-04-27T05:14:57.598Z,5.25
2023-04-27T05:18:00.213Z,5.38
2023-04-27T05:21:03.228Z,4.85
2023-04-27T05:24:06.420Z,5.18
2023-04-27T05:27:08.906Z,4.57
2023-04-27T05:30:12.115Z,4.45
2023-04-27T05:33:14.459Z,4.95
2023-04-27T05:36:16.967Z,4.95
2023-04-27T05:39:19.500Z,4.78
2023-04-27T05:42:22.419Z,4.30
2023-04-27T05:45:25.037Z,4.40
2023-04-27T05:48:27.828Z,5.03
2023-04-27T05:51:31.673Z,5.32
2023-04-27T05:54:34.250Z,5.10
2023-04-27T05:57:36.698Z,4.72
2023-04-27T06:00:39.307Z,4.38
2023-04-27T06:03:41.768Z,4.32
2023-04-27T06:06:45.073Z,3.88
2023-04-27T06:09:47.504Z,3.47
2023-04-27T06:12:49.964Z,4.03
2023-04-27T06:15:52.574Z,4.13
2023-04-27T06:18:55.285Z,4.30
2023-04-27T06:21:57.810Z,3.45
2023-04-27T06:25:00.783Z,3.25
2023-04-27T06:28:03.491Z,3.33
2023-04-27T06:31:06.544Z,3.20
2023-04-27T06:34:09.128Z,3.53
2023-04-27T06:37:11.786Z,3.40
2023-04-27T06:40:14.645Z,3.05
2023-04-27T06:43:17.293Z,3.30
2023-04-27T06:46:20.312Z,2.85
2023-04-27T06:49:22.756Z,3.47
2023-04-27T06:52:25.451Z,3.42
2023-04-27T06:55:28.559Z,3.05
2023-04-27T06:58:31.340Z,3.38
2023-04-27T07:01:34.191Z,2.80
2023-04-27T07:04:39.668Z,3.00
2023-04-27T07:07:42.560Z,3.03
2023-04-27T07:10:48.411Z,2.97
2023-04-27T07:13:51.709Z,2.60
2023-04-27T07:16:54.566Z,2.90
2023-04-27T07:19:57.893Z,3.22
2023-04-27T07:23:00.703Z,2.90
2023-04-27T07:26:03.388Z,3.65
2023-04-27T07:29:18.953Z,3.55
2023-04-27T07:32:28.667Z,2.78
2023-04-27T07:35:32.092Z,3.10
2023-04-27T07:38:35.934Z,3.13
2023-04-27T07:41:39.283Z,3.35
2023-04-27T07:44:42.659Z,2.97
2023-04-27T07:47:45.279Z,2.85
2023-04-27T07:50:47.745Z,2.80
2023-04-27T07:53:50.207Z,3.30
2023-04-27T07:56:53.840Z,2.63
2023-04-27T07:59:57.556Z,2.28
2023-04-27T08:03:00.062Z,2.50
2023-04-27T08:06:05.046Z,2.05
2023-04-27T08:09:08.203Z,3.22
2023-04-27T08:12:11.843Z,2.47
2023-04-27T08:15:14.502Z,1.95
2023-04-27T08:18:18.017Z,1.95
2023-04-27T08:21:20.713Z,2.20
2023-04-27T08:24:23.259Z,1.92
2023-04-27T08:27:25.768Z,2.17
2023-04-27T08:30:28.260Z,2.00
2023-04-27T08:33:30.912Z,2.38
2023-04-27T08:36:34.445Z,2.30
2023-04-27T08:39:37.037Z,3.38
2023-04-27T08:42:40.945Z,2.15
2023-04-27T08:45:48.731Z,2.08
2023-04-27T08:48:51.727Z,2.33
2023-04-27T08:54:56.991Z,1.85
2023-04-27T08:58:01.823Z,2.20
2023-04-27T09:01:08.739Z,2.10
2023-04-27T09:04:12.176Z,2.03
2023-04-27T09:07:16.050Z,2.13
2023-04-27T09:10:18.632Z,2.03
2023-04-27T09:13:21.407Z,2.25
2023-04-27T09:16:24.859Z,2.20
2023-04-27T09:19:28.634Z,2.60
2023-04-27T09:27:27.253Z,2.75
2023-04-27T09:33:34.302Z,2.80
2023-04-27T09:36:38.069Z,2.60
2023-04-27T09:39:40.743Z,2.40
2023-04-27T09:42:43.323Z,2.13
2023-04-27T09:45:46.381Z,2.67
2023-04-27T09:51:54.503Z,2.33
2023-04-27T09:55:10.245Z,2.40
2023-04-27T09:58:52.670Z,2.97
2023-04-27T10:01:58.219Z,2.25
2023-04-27T10:05:29.903Z,2.70
2023-04-27T10:08:34.733Z,2.42
2023-04-27T10:11:41.661Z,2.33
2023-04-27T10:14:53.612Z,2.30
2023-04-27T10:17:59.278Z,2.42
2023-04-27T10:21:11.348Z,2.63
2023-04-27T10:24:14.242Z,2.38
2023-04-27T10:27:23.157Z,2.60
2023-04-27T10:30:27.756Z,2.55
2023-04-27T10:33:30.771Z,2.70
2023-04-27T10:36:37.836Z,3.08
2023-04-27T10:39:48.708Z,2.63
2023-04-27T10:42:52.245Z,3.08
2023-04-27T10:45:55.850Z,2.80
2023-04-27T10:48:58.794Z,3.10
2023-04-27T10:52:04.934Z,2.67
2023-04-27T10:55:20.768Z,2.95
2023-04-27T10:58:23.659Z,2.95
2023-04-27T11:01:27.078Z,3.30
2023-04-27T11:04:40.508Z,2.78
2023-04-27T11:07:43.009Z,2.53
2023-04-27T11:10:47.487Z,2.85
2023-04-27T11:13:50.077Z,2.83
2023-04-27T11:16:52.880Z,2.50
2023-04-27T11:19:55.441Z,2.22
2023-04-27T11:22:58.044Z,2.83
2023-04-27T11:26:11.556Z,2.53
2023-04-27T11:29:15.636Z,2.88
2023-04-27T11:32:22.065Z,2.70
2023-04-27T11:35:36.799Z,2.85
2023-04-27T11:38:39.187Z,3.28
2023-04-27T11:41:46.415Z,3.03
2023-04-27T11:44:53.469Z,2.70
2023-04-27T11:47:58.572Z,2.97
2023-04-27T11:51:01.608Z,2.67
2023-04-27T11:54:04.838Z,3.13
2023-04-27T11:57:08.285Z,2.15
2023-04-27T12:00:11.447Z,2.67
2023-04-27T12:03:17.483Z,2.60
2023-04-27T12:06:32.664Z,2.90
2023-04-27T12:09:36.225Z,2.60
2023-04-27T12:12:39.129Z,2.50
2023-04-27T12:18:45.166Z,2.35
2023-04-27T12:21:48.066Z,2.40
2023-04-27T12:24:53.098Z,2.67
2023-04-27T12:27:56.046Z,2.58
2023-04-27T12:30:58.877Z,2.70
2023-04-27T12:34:02.211Z,2.30
2023-04-27T12:37:05.467Z,3.00
2023-04-27T12:40:11.006Z,2.80
2023-04-27T12:43:13.653Z,2.42
2023-04-27T12:46:16.627Z,2.80
2023-04-27T12:49:19.554Z,2.72
2023-04-27T12:52:28.248Z,2.60
2023-04-27T12:55:34.274Z,2.42
2023-04-27T12:58:37.647Z,3.30
2023-04-27T13:01:40.291Z,2.45
2023-04-27T13:04:43.050Z,2.47
2023-04-27T13:07:46.099Z,2.83
2023-04-27T13:10:48.837Z,2.70
2023-04-27T13:13:52.039Z,2.83
2023-04-27T13:16:54.745Z,2.45
2023-04-27T13:19:57.594Z,2.30
2023-04-27T13:23:00.214Z,2.72
2023-04-27T13:26:04.820Z,2.75
2023-04-27T13:29:07.811Z,2.88
2023-04-27T13:32:10.706Z,2.67
2023-04-27T13:35:13.401Z,2.42
2023-04-27T13:38:18.054Z,3.03
2023-04-27T13:41:22.630Z,2.47
2023-04-27T13:44:25.578Z,2.67
2023-04-27T13:47:32.856Z,2.33
2023-04-27T13:50:36.324Z,2.30
2023-04-27T13:53:39.440Z,2.60
2023-04-27T13:56:42.858Z,2.80
2023-04-27T13:59:45.779Z,2.50
2023-04-27T14:02:48.644Z,2.80
2023-04-27T14:05:51.751Z,2.47
2023-04-27T14:08:55.658Z,2.58
2023-04-27T14:11:59.245Z,2.45
2023-04-27T14:15:01.752Z,2.55
2023-04-27T14:18:06.056Z,2.25
2023-04-27T14:21:08.564Z,2.63
2023-04-27T14:24:11.117Z,2.40
2023-04-27T14:30:16.037Z,2.38
2023-04-27T14:36:20.809Z,2.50
2023-04-27T14:39:23.360Z,2.15
2023-04-27T14:42:25.837Z,2.53
2023-04-27T14:45:33.842Z,2.03
2023-04-27T14:48:42.696Z,2.53
2023-04-27T14:54:47.790Z,3.67
2023-04-27T14:57:51.288Z,2.22
2023-04-27T15:00:54.126Z,2.35
2023-04-27T15:03:58.182Z,2.30
2023-04-27T15:07:01.322Z,2.40
2023-04-27T15:10:04.533Z,2.40
2023-04-27T15:13:07.755Z,1.88
2023-04-27T15:16:10.444Z,2.35
2023-04-27T15:19:13.652Z,2.45
2023-04-27T15:22:16.516Z,2.70
2023-04-27T15:28:22.046Z,2.50
2023-04-27T15:31:24.699Z,2.25
2023-04-27T15:34:27.276Z,2.58
2023-04-27T15:40:33.013Z,2.42
2023-04-27T15:43:35.776Z,2.33
2023-04-27T15:46:38.404Z,1.98
2023-04-27T15:52:59.905Z,2.22
2023-04-27T15:59:06.495Z,2.50
2023-04-27T16:02:09.112Z,2.70
2023-04-27T16:05:11.632Z,2.08
2023-04-27T16:08:14.325Z,2.55
2023-04-27T16:14:19.434Z,2.47
2023-04-27T16:17:22.437Z,2.83
2023-04-27T16:20:26.198Z,2.33
2023-04-27T16:23:28.936Z,2.22
2023-04-27T16:26:31.813Z,3.05
2023-04-27T16:29:34.843Z,4.30
2023-04-27T16:32:39.235Z,2.40
2023-04-27T16:35:42.207Z,2.60
2023-04-27T16:38:47.318Z,2.70
2023-04-27T16:41:51.109Z,2.20
2023-04-27T16:44:54.046Z,2.15
2023-04-27T16:47:59.943Z,2.28
2023-04-27T16:51:02.758Z,2.33
2023-04-27T16:54:06.529Z,2.95
2023-04-27T16:57:09.040Z,2.35
2023-04-27T17:00:12.619Z,2.42
2023-04-27T17:03:16.199Z,2.25
2023-04-27T17:06:19.413Z,2.28
2023-04-27T17:09:22.379Z,3.22
2023-04-27T17:15:29.087Z,2.10
2023-04-27T17:18:34.305Z,2.47
2023-04-27T17:21:37.483Z,2.40
2023-04-27T17:24:40.127Z,2.70
2023-04-27T17:30:45.625Z,2.40
2023-04-27T17:37:24.133Z,2.88
2023-04-27T17:40:35.537Z,2.85
2023-04-27T17:43:38.518Z,3.03
2023-04-27T17:46:47.007Z,3.03
2023-04-27T17:49:49.855Z,3.22
2023-04-27T17:52:53.760Z,3.53
2023-04-27T17:55:57.132Z,3.50
2023-04-27T17:58:59.661Z,3.20
2023-04-27T18:02:03.172Z,2.53
2023-04-27T18:05:06.640Z,2.88
2023-04-27T18:08:10.268Z,3.15
2023-04-27T18:11:15.316Z,3.30
2023-04-27T18:14:17.798Z,2.72
2023-04-27T18:17:21.105Z,3.00
2023-04-27T18:20:24.159Z,2.70
2023-04-27T18:23:27.524Z,2.90
2023-04-27T18:26:31.078Z,3.55
2023-04-27T18:29:33.772Z,3.20
2023-04-27T18:32:36.424Z,3.03
2023-04-27T18:35:39.467Z,3.63
2023-04-27T18:38:42.161Z,3.25
2023-04-27T18:41:44.802Z,3.80
2023-04-27T18:44:50.340Z,3.08
2023-04-27T18:47:52.966Z,3.75
2023-04-27T18:50:55.653Z,3.20
2023-04-27T18:53:58.466Z,3.17
2023-04-27T18:57:01.933Z,3.40
2023-04-27T19:03:11.217Z,3.25
2023-04-27T19:09:18.299Z,2.92
2023-04-27T19:12:21.946Z,3.45
2023-04-27T19:15:24.663Z,3.63
2023-04-27T19:18:27.799Z,4.13
2023-04-27T19:24:32.512Z,3.90
2023-04-27T19:27:35.300Z,4.13
2023-04-27T19:30:38.265Z,3.67
2023-04-27T19:33:46.668Z,3.95
2023-04-27T19:36:50.170Z,4.88
2023-04-27T19:39:53.126Z,5.50
2023-04-27T19:42:55.964Z,4.22
2023-04-27T19:49:01.692Z,4.13
2023-04-27T19:52:05.326Z,4.20
2023-04-27T19:55:08.395Z,4.40
2023-04-27T19:58:10.946Z,4.63
2023-04-27T20:01:13.663Z,5.15
2023-04-27T20:04:18.480Z,5.63
2023-04-27T20:07:21.428Z,7.20
2023-04-27T20:10:23.950Z,5.60
2023-04-27T20:13:26.718Z,5.78
2023-04-27T20:16:30.930Z,6.70
2023-04-27T20:19:34.249Z,7.40
2023-04-27T20:22:40.956Z,6.65
2023-04-27T20:25:44.475Z,6.72
2023-04-27T20:28:47.497Z,6.40
2023-04-27T20:31:50.092Z,6.20
2023-04-27T20:34:52.986Z,6.65
2023-04-27T20:37:57.999Z,6.63
2023-04-27T20:42:05.852Z,6.80
2023-04-27T20:45:11.609Z,6.97
2023-04-27T20:48:14.343Z,6.50
2023-04-27T20:51:17.036Z,6.43
2023-04-27T20:54:19.499Z,6.40
2023-04-27T20:57:22.233Z,6.78
2023-04-27T21:00:25.557Z,6.95
2023-04-27T21:03:28.999Z,7.25
2023-04-27T21:06:32.022Z,7.10
2023-04-27T21:09:35.422Z,7.50
2023-04-27T21:12:37.945Z,6.93
2023-04-27T21:15:40.895Z,7.03
2023-04-27T21:18:43.689Z,6.35
2023-04-27T21:21:47.301Z,7.15
2023-04-27T21:24:49.979Z,6.68
2023-04-27T21:27:53.109Z,6.85
2023-04-27T21:30:55.661Z,6.57
2023-04-27T21:33:58.417Z,6.18
2023-04-27T21:37:01.213Z,6.75
2023-04-27T21:40:05.955Z,6.53
2023-04-27T21:43:09.003Z,6.78
2023-04-27T21:46:12.506Z,8.57
2023-04-27T21:49:15.134Z,7.35
2023-04-27T21:52:19.914Z,6.55
2023-04-27T21:55:22.466Z,6.70
2023-04-27T21:58:25.421Z,6.60
2023-04-27T22:01:28.523Z,6.85
2023-04-27T22:04:31.419Z,6.75
2023-04-27T22:07:35.393Z,6.90
2023-04-27T22:10:38.182Z,7.55
2023-04-27T22:13:41.154Z,6.80
2023-04-27T22:16:44.125Z,6.97
2023-04-27T22:19:47.217Z,7.22
2023-04-27T22:22:49.919Z,7.30
2023-04-27T22:25:52.579Z,7.57
2023-04-27T22:28:55.452Z,7.47
2023-04-27T22:31:58.001Z,6.97
2023-04-27T22:35:00.906Z,6.72
2023-04-27T22:38:03.411Z,6.70
2023-04-27T22:41:06.140Z,6.50
2023-04-27T22:44:08.956Z,7.55
2023-04-27T22:47:12.338Z,7.18
2023-04-27T22:50:15.755Z,6.97
2023-04-27T22:53:19.428Z,6.90
2023-04-27T22:56:22.531Z,7.10
2023-04-27T22:59:26.960Z,7.07
2023-04-27T23:02:29.755Z,6.78
2023-04-27T23:05:32.710Z,7.15
2023-04-27T23:08:37.266Z,7.78
2023-04-27T23:11:40.614Z,6.78
2023-04-27T23:14:43.619Z,7.15
2023-04-27T23:17:46.257Z,6.88
2023-04-27T23:20:54.333Z,7.32
2023-04-27T23:23:57.368Z,6.95
2023-04-27T23:26:59.966Z,7.43
2023-04-27T23:30:03.134Z,7.72
2023-04-27T23:33:05.707Z,8.02
2023-04-27T23:36:09.918Z,7.93
2023-04-27T23:39:12.735Z,7.70
2023-04-27T23:42:15.621Z,8.60
2023-04-27T23:45:18.373Z,9.02
2023-04-27T23:48:21.289Z,9.77
2023-04-27T23:51:23.949Z,9.88
2023-04-27T23:54:30.987Z,8.45
2023-04-27T23:57:33.621Z,8.85
